sensor_id;sensor_type;location;lat;lon;timestamp;P1;durP1;ratioP1;P2;durP2;ratioP2
13580;SDS011;6861;46.170;7.222;2023-08-30T00:01:00;1.05;;;0.82;;
13580;SDS011;6861;46.170;7.222;2023-08-30T00:03:28;1.35;;;0.88;;
13580;SDS011;6861;46.170;7.222;2023-08-30T00:06:01;1.60;;;0.90;;
13580;SDS011;6861;46.170;7.222;2023-08-30T00:08:30;1.20;;;1.05;;
13580;SDS011;6861;46.170;7.222;2023-08-30T00:11:00;3.53;;;0.90;;
13580;SDS011;6861;46.170;7.222;2023-08-30T00:13:31;1.98;;;1.00;;
13580;SDS011;6861;46.170;7.222;2023-08-30T00:16:00;0.82;;;0.80;;
13580;SDS011;6861;46.170;7.222;2023-08-30T00:18:29;1.90;;;0.90;;
13580;SDS011;6861;46.170;7.222;2023-08-30T00:20:58;1.35;;;0.90;;
13580;SDS011;6861;46.170;7.222;2023-08-30T00:23:27;1.02;;;0.93;;
13580;SDS011;6861;46.170;7.222;2023-08-30T00:25:55;1.00;;;0.90;;
13580;SDS011;6861;46.170;7.222;2023-08-30T00:28:25;2.80;;;0.80;;
13580;SDS011;6861;46.170;7.222;2023-08-30T00:30:53;2.30;;;0.90;;
13580;SDS011;6861;46.170;7.222;2023-08-30T00:33:22;1.63;;;0.88;;
13580;SDS011;6861;46.170;7.222;2023-08-30T00:35:55;4.65;;;0.90;;
13580;SDS011;6861;46.170;7.222;2023-08-30T00:38:24;3.63;;;0.80;;
13580;SDS011;6861;46.170;7.222;2023-08-30T00:40:53;1.15;;;0.85;;
13580;SDS011;6861;46.170;7.222;2023-08-30T00:43:22;0.70;;;0.70;;
13580;SDS011;6861;46.170;7.222;2023-08-30T00:45:50;0.80;;;0.80;;
13580;SDS011;6861;46.170;7.222;2023-08-30T00:48:19;2.20;;;1.10;;
13580;SDS011;6861;46.170;7.222;2023-08-30T00:50:48;1.83;;;1.15;;
13580;SDS011;6861;46.170;7.222;2023-08-30T00:53:16;1.40;;;0.80;;
13580;SDS011;6861;46.170;7.222;2023-08-30T00:55:45;1.70;;;1.20;;
13580;SDS011;6861;46.170;7.222;2023-08-30T00:58:13;1.70;;;1.10;;
13580;SDS011;6861;46.170;7.222;2023-08-30T01:00:42;1.58;;;1.23;;
13580;SDS011;6861;46.170;7.222;2023-08-30T01:03:12;1.33;;;1.10;;
13580;SDS011;6861;46.170;7.222;2023-08-30T01:05:40;1.33;;;1.00;;
13580;SDS011;6861;46.170;7.222;2023-08-30T01:08:09;2.55;;;1.10;;
13580;SDS011;6861;46.170;7.222;2023-08-30T01:10:49;1.55;;;1.00;;
13580;SDS011;6861;46.170;7.222;2023-08-30T01:13:25;1.65;;;1.17;;
13580;SDS011;6861;46.170;7.222;2023-08-30T01:15:57;1.50;;;0.90;;
13580;SDS011;6861;46.170;7.222;2023-08-30T01:18:29;2.40;;;1.00;;
13580;SDS011;6861;46.170;7.222;2023-08-30T01:21:00;1.98;;;1.23;;
13580;SDS011;6861;46.170;7.222;2023-08-30T01:23:33;2.10;;;1.30;;
13580;SDS011;6861;46.170;7.222;2023-08-30T01:26:11;1.30;;;1.17;;
13580;SDS011;6861;46.170;7.222;2023-08-30T01:28:55;2.03;;;1.20;;
13580;SDS011;6861;46.170;7.222;2023-08-30T01:31:24;3.30;;;1.50;;
13580;SDS011;6861;46.170;7.222;2023-08-30T01:33:53;2.17;;;1.48;;
13580;SDS011;6861;46.170;7.222;2023-08-30T01:36:22;4.03;;;1.35;;
13580;SDS011;6861;46.170;7.222;2023-08-30T01:38:50;2.47;;;1.27;;
13580;SDS011;6861;46.170;7.222;2023-08-30T01:41:20;1.00;;;0.90;;
13580;SDS011;6861;46.170;7.222;2023-08-30T01:43:50;1.42;;;1.10;;
13580;SDS011;6861;46.170;7.222;2023-08-30T01:46:20;2.58;;;1.20;;
13580;SDS011;6861;46.170;7.222;2023-08-30T01:48:49;2.97;;;1.10;;
13580;SDS011;6861;46.170;7.222;2023-08-30T01:51:18;3.25;;;1.40;;
13580;SDS011;6861;46.170;7.222;2023-08-30T01:53:46;1.95;;;1.25;;
13580;SDS011;6861;46.170;7.222;2023-08-30T01:56:16;1.65;;;1.10;;
13580;SDS011;6861;46.170;7.222;2023-08-30T01:58:44;2.60;;;1.38;;
13580;SDS011;6861;46.170;7.222;2023-08-30T02:01:12;2.08;;;1.25;;
13580;SDS011;6861;46.170;7.222;2023-08-30T02:03:44;1.95;;;1.10;;
13580;SDS011;6861;46.170;7.222;2023-08-30T02:06:13;1.73;;;1.30;;
13580;SDS011;6861;46.170;7.222;2023-08-30T02:08:46;1.10;;;0.95;;
13580;SDS011;6861;46.170;7.222;2023-08-30T02:11:23;1.58;;;1.02;;
13580;SDS011;6861;46.170;7.222;2023-08-30T02:13:56;2.08;;;1.20;;
13580;SDS011;6861;46.170;7.222;2023-08-30T02:16:25;1.20;;;1.00;;
13580;SDS011;6861;46.170;7.222;2023-08-30T02:18:56;2.60;;;1.10;;
13580;SDS011;6861;46.170;7.222;2023-08-30T02:21:25;1.27;;;1.10;;
13580;SDS011;6861;46.170;7.222;2023-08-30T02:23:54;2.17;;;1.10;;
13580;SDS011;6861;46.170;7.222;2023-08-30T02:26:22;1.50;;;1.10;;
13580;SDS011;6861;46.170;7.222;2023-08-30T02:28:50;2.95;;;1.10;;
13580;SDS011;6861;46.170;7.222;2023-08-30T02:31:18;3.33;;;1.23;;
13580;SDS011;6861;46.170;7.222;2023-08-30T02:33:46;1.00;;;0.82;;
13580;SDS011;6861;46.170;7.222;2023-08-30T02:36:16;1.23;;;1.13;;
13580;SDS011;6861;46.170;7.222;2023-08-30T02:38:44;1.45;;;1.15;;
13580;SDS011;6861;46.170;7.222;2023-08-30T02:41:12;4.50;;;1.17;;
13580;SDS011;6861;46.170;7.222;2023-08-30T02:43:40;1.15;;;0.90;;
13580;SDS011;6861;46.170;7.222;2023-08-30T02:46:08;3.50;;;1.17;;
13580;SDS011;6861;46.170;7.222;2023-08-30T02:48:36;1.20;;;1.10;;
13580;SDS011;6861;46.170;7.222;2023-08-30T02:51:04;1.98;;;1.40;;
13580;SDS011;6861;46.170;7.222;2023-08-30T02:53:34;2.63;;;1.17;;
13580;SDS011;6861;46.170;7.222;2023-08-30T02:56:02;1.83;;;1.10;;
13580;SDS011;6861;46.170;7.222;2023-08-30T02:58:30;4.85;;;1.33;;
13580;SDS011;6861;46.170;7.222;2023-08-30T03:01:00;1.40;;;1.08;;
13580;SDS011;6861;46.170;7.222;2023-08-30T03:03:29;1.55;;;1.10;;
13580;SDS011;6861;46.170;7.222;2023-08-30T03:05:57;1.95;;;1.23;;
13580;SDS011;6861;46.170;7.222;2023-08-30T03:08:25;3.47;;;1.23;;
13580;SDS011;6861;46.170;7.222;2023-08-30T03:10:55;1.15;;;0.90;;
13580;SDS011;6861;46.170;7.222;2023-08-30T03:13:26;1.38;;;1.10;;
13580;SDS011;6861;46.170;7.222;2023-08-30T03:15:54;1.38;;;0.88;;
13580;SDS011;6861;46.170;7.222;2023-08-30T03:18:22;2.08;;;1.10;;
13580;SDS011;6861;46.170;7.222;2023-08-30T03:20:59;1.48;;;1.08;;
13580;SDS011;6861;46.170;7.222;2023-08-30T03:23:27;2.08;;;0.93;;
13580;SDS011;6861;46.170;7.222;2023-08-30T03:25:57;1.52;;;1.02;;
13580;SDS011;6861;46.170;7.222;2023-08-30T03:28:25;0.95;;;0.80;;
13580;SDS011;6861;46.170;7.222;2023-08-30T03:30:54;1.08;;;0.85;;
13580;SDS011;6861;46.170;7.222;2023-08-30T03:33:22;1.00;;;0.80;;
13580;SDS011;6861;46.170;7.222;2023-08-30T03:35:50;1.00;;;0.85;;
13580;SDS011;6861;46.170;7.222;2023-08-30T03:38:18;1.10;;;1.00;;
13580;SDS011;6861;46.170;7.222;2023-08-30T03:40:46;2.22;;;1.20;;
13580;SDS011;6861;46.170;7.222;2023-08-30T03:43:21;2.40;;;1.10;;
13580;SDS011;6861;46.170;7.222;2023-08-30T03:45:49;1.50;;;1.05;;
13580;SDS011;6861;46.170;7.222;2023-08-30T03:48:18;1.10;;;1.00;;
13580;SDS011;6861;46.170;7.222;2023-08-30T03:50:47;1.83;;;0.95;;
13580;SDS011;6861;46.170;7.222;2023-08-30T03:53:15;2.03;;;0.90;;
13580;SDS011;6861;46.170;7.222;2023-08-30T03:55:43;1.65;;;1.05;;
13580;SDS011;6861;46.170;7.222;2023-08-30T03:58:11;1.27;;;0.88;;
13580;SDS011;6861;46.170;7.222;2023-08-30T04:00:41;1.60;;;0.98;;
13580;SDS011;6861;46.170;7.222;2023-08-30T04:03:09;3.63;;;1.20;;
13580;SDS011;6861;46.170;7.222;2023-08-30T04:05:38;1.80;;;1.20;;
13580;SDS011;6861;46.170;7.222;2023-08-30T04:08:06;3.30;;;1.27;;
13580;SDS011;6861;46.170;7.222;2023-08-30T04:10:35;1.83;;;1.10;;
13580;SDS011;6861;46.170;7.222;2023-08-30T04:13:03;3.10;;;1.38;;
13580;SDS011;6861;46.170;7.222;2023-08-30T04:15:33;1.80;;;1.10;;
13580;SDS011;6861;46.170;7.222;2023-08-30T04:18:03;2.45;;;0.98;;
13580;SDS011;6861;46.170;7.222;2023-08-30T04:20:33;1.40;;;1.20;;
13580;SDS011;6861;46.170;7.222;2023-08-30T04:23:02;1.27;;;0.88;;
13580;SDS011;6861;46.170;7.222;2023-08-30T04:25:30;1.05;;;0.93;;
13580;SDS011;6861;46.170;7.222;2023-08-30T04:27:58;1.50;;;1.15;;
13580;SDS011;6861;46.170;7.222;2023-08-30T04:30:27;1.20;;;1.05;;
13580;SDS011;6861;46.170;7.222;2023-08-30T04:32:55;1.10;;;1.00;;
13580;SDS011;6861;46.170;7.222;2023-08-30T04:35:24;1.52;;;1.00;;
13580;SDS011;6861;46.170;7.222;2023-08-30T04:37:52;1.40;;;1.17;;
13580;SDS011;6861;46.170;7.222;2023-08-30T04:40:20;1.40;;;1.30;;
13580;SDS011;6861;46.170;7.222;2023-08-30T04:42:52;2.72;;;1.13;;
13580;SDS011;6861;46.170;7.222;2023-08-30T04:45:20;3.13;;;1.30;;
13580;SDS011;6861;46.170;7.222;2023-08-30T04:47:48;1.40;;;1.20;;
13580;SDS011;6861;46.170;7.222;2023-08-30T04:50:16;3.15;;;1.27;;
13580;SDS011;6861;46.170;7.222;2023-08-30T04:52:46;1.40;;;1.30;;
13580;SDS011;6861;46.170;7.222;2023-08-30T04:55:14;1.30;;;1.20;;
13580;SDS011;6861;46.170;7.222;2023-08-30T04:57:42;1.38;;;1.10;;
13580;SDS011;6861;46.170;7.222;2023-08-30T05:00:12;3.05;;;1.10;;
13580;SDS011;6861;46.170;7.222;2023-08-30T05:02:40;2.72;;;0.95;;
13580;SDS011;6861;46.170;7.222;2023-08-30T05:05:10;1.70;;;1.23;;
13580;SDS011;6861;46.170;7.222;2023-08-30T05:07:38;1.45;;;1.10;;
13580;SDS011;6861;46.170;7.222;2023-08-30T05:10:08;3.75;;;1.40;;
13580;SDS011;6861;46.170;7.222;2023-08-30T05:12:37;1.25;;;1.15;;
13580;SDS011;6861;46.170;7.222;2023-08-30T05:15:05;2.08;;;1.30;;
13580;SDS011;6861;46.170;7.222;2023-08-30T05:17:34;3.47;;;1.13;;
13580;SDS011;6861;46.170;7.222;2023-08-30T05:20:02;1.45;;;0.90;;
13580;SDS011;6861;46.170;7.222;2023-08-30T05:22:31;3.00;;;0.93;;
13580;SDS011;6861;46.170;7.222;2023-08-30T05:24:59;2.63;;;1.10;;
13580;SDS011;6861;46.170;7.222;2023-08-30T05:27:29;2.10;;;1.20;;
13580;SDS011;6861;46.170;7.222;2023-08-30T05:29:57;4.47;;;1.23;;
13580;SDS011;6861;46.170;7.222;2023-08-30T05:32:26;1.50;;;1.00;;
13580;SDS011;6861;46.170;7.222;2023-08-30T05:34:54;1.58;;;1.10;;
13580;SDS011;6861;46.170;7.222;2023-08-30T05:37:22;1.60;;;1.25;;
13580;SDS011;6861;46.170;7.222;2023-08-30T05:39:50;1.70;;;1.33;;
13580;SDS011;6861;46.170;7.222;2023-08-30T05:42:18;1.60;;;1.23;;
13580;SDS011;6861;46.170;7.222;2023-08-30T05:44:48;3.10;;;1.17;;
13580;SDS011;6861;46.170;7.222;2023-08-30T05:47:16;2.97;;;1.30;;
13580;SDS011;6861;46.170;7.222;2023-08-30T05:49:45;1.60;;;1.15;;
13580;SDS011;6861;46.170;7.222;2023-08-30T05:52:14;1.50;;;1.30;;
13580;SDS011;6861;46.170;7.222;2023-08-30T05:54:44;2.15;;;1.27;;
13580;SDS011;6861;46.170;7.222;2023-08-30T05:57:12;3.60;;;1.27;;
13580;SDS011;6861;46.170;7.222;2023-08-30T05:59:40;1.90;;;1.20;;
13580;SDS011;6861;46.170;7.222;2023-08-30T06:02:10;3.08;;;1.27;;
13580;SDS011;6861;46.170;7.222;2023-08-30T06:04:38;3.83;;;1.48;;
13580;SDS011;6861;46.170;7.222;2023-08-30T06:07:07;2.70;;;1.30;;
13580;SDS011;6861;46.170;7.222;2023-08-30T06:09:35;6.45;;;1.60;;
13580;SDS011;6861;46.170;7.222;2023-08-30T06:12:03;3.65;;;1.70;;
13580;SDS011;6861;46.170;7.222;2023-08-30T06:14:32;4.18;;;1.38;;
13580;SDS011;6861;46.170;7.222;2023-08-30T06:17:00;5.95;;;1.60;;
13580;SDS011;6861;46.170;7.222;2023-08-30T06:19:30;5.05;;;1.45;;
13580;SDS011;6861;46.170;7.222;2023-08-30T06:21:58;3.72;;;1.60;;
13580;SDS011;6861;46.170;7.222;2023-08-30T06:24:26;3.20;;;1.50;;
13580;SDS011;6861;46.170;7.222;2023-08-30T06:26:54;3.05;;;1.30;;
13580;SDS011;6861;46.170;7.222;2023-08-30T06:29:22;1.40;;;1.30;;
13580;SDS011;6861;46.170;7.222;2023-08-30T06:31:50;2.38;;;1.40;;
13580;SDS011;6861;46.170;7.222;2023-08-30T06:34:19;2.47;;;1.15;;
13580;SDS011;6861;46.170;7.222;2023-08-30T06:36:48;3.58;;;1.05;;
13580;SDS011;6861;46.170;7.222;2023-08-30T06:39:17;3.53;;;1.58;;
13580;SDS011;6861;46.170;7.222;2023-08-30T06:41:45;3.25;;;1.85;;
13580;SDS011;6861;46.170;7.222;2023-08-30T06:44:13;2.35;;;1.52;;
13580;SDS011;6861;46.170;7.222;2023-08-30T06:46:42;2.95;;;1.48;;
13580;SDS011;6861;46.170;7.222;2023-08-30T06:49:10;3.70;;;1.40;;
13580;SDS011;6861;46.170;7.222;2023-08-30T06:51:38;2.25;;;1.48;;
13580;SDS011;6861;46.170;7.222;2023-08-30T06:54:07;4.50;;;1.70;;
13580;SDS011;6861;46.170;7.222;2023-08-30T06:56:36;1.83;;;1.48;;
13580;SDS011;6861;46.170;7.222;2023-08-30T06:59:04;4.70;;;1.40;;
13580;SDS011;6861;46.170;7.222;2023-08-30T07:01:32;1.60;;;1.42;;
13580;SDS011;6861;46.170;7.222;2023-08-30T07:04:02;2.35;;;1.50;;
13580;SDS011;6861;46.170;7.222;2023-08-30T07:06:30;3.60;;;1.48;;
13580;SDS011;6861;46.170;7.222;2023-08-30T07:08:58;1.45;;;1.30;;
13580;SDS011;6861;46.170;7.222;2023-08-30T07:11:28;3.20;;;1.60;;
13580;SDS011;6861;46.170;7.222;2023-08-30T07:14:00;3.75;;;1.10;;
13580;SDS011;6861;46.170;7.222;2023-08-30T07:16:28;1.15;;;1.05;;
13580;SDS011;6861;46.170;7.222;2023-08-30T07:18:58;2.22;;;1.10;;
13580;SDS011;6861;46.170;7.222;2023-08-30T07:21:26;2.65;;;1.25;;
13580;SDS011;6861;46.170;7.222;2023-08-30T07:23:54;1.40;;;1.13;;
13580;SDS011;6861;46.170;7.222;2023-08-30T07:26:23;0.88;;;0.88;;
13580;SDS011;6861;46.170;7.222;2023-08-30T07:28:52;2.03;;;1.10;;
13580;SDS011;6861;46.170;7.222;2023-08-30T07:31:20;3.33;;;1.40;;
13580;SDS011;6861;46.170;7.222;2023-08-30T07:33:49;1.42;;;1.10;;
13580;SDS011;6861;46.170;7.222;2023-08-30T07:36:17;2.00;;;1.00;;
13580;SDS011;6861;46.170;7.222;2023-08-30T07:38:47;1.42;;;1.02;;
13580;SDS011;6861;46.170;7.222;2023-08-30T07:41:15;1.27;;;1.05;;
13580;SDS011;6861;46.170;7.222;2023-08-30T07:43:44;1.77;;;1.23;;
13580;SDS011;6861;46.170;7.222;2023-08-30T07:46:13;2.42;;;1.15;;
13580;SDS011;6861;46.170;7.222;2023-08-30T07:48:41;1.67;;;1.17;;
13580;SDS011;6861;46.170;7.222;2023-08-30T07:51:09;2.05;;;1.10;;
13580;SDS011;6861;46.170;7.222;2023-08-30T07:53:37;4.82;;;1.40;;
13580;SDS011;6861;46.170;7.222;2023-08-30T07:56:06;3.58;;;1.27;;
13580;SDS011;6861;46.170;7.222;2023-08-30T07:58:34;2.47;;;1.20;;
13580;SDS011;6861;46.170;7.222;2023-08-30T08:01:02;2.88;;;1.08;;
13580;SDS011;6861;46.170;7.222;2023-08-30T08:03:32;1.35;;;1.00;;
13580;SDS011;6861;46.170;7.222;2023-08-30T08:06:00;2.55;;;1.17;;
13580;SDS011;6861;46.170;7.222;2023-08-30T08:08:28;2.33;;;1.00;;
13580;SDS011;6861;46.170;7.222;2023-08-30T08:10:58;1.33;;;0.98;;
13580;SDS011;6861;46.170;7.222;2023-08-30T08:13:26;1.70;;;1.17;;
13580;SDS011;6861;46.170;7.222;2023-08-30T08:15:55;2.92;;;1.13;;
13580;SDS011;6861;46.170;7.222;2023-08-30T08:18:24;2.72;;;1.10;;
13580;SDS011;6861;46.170;7.222;2023-08-30T08:20:55;1.25;;;1.15;;
13580;SDS011;6861;46.170;7.222;2023-08-30T08:23:23;1.83;;;1.10;;
13580;SDS011;6861;46.170;7.222;2023-08-30T08:25:56;1.40;;;1.20;;
13580;SDS011;6861;46.170;7.222;2023-08-30T08:28:25;1.60;;;1.10;;
13580;SDS011;6861;46.170;7.222;2023-08-30T08:30:53;2.10;;;1.00;;
13580;SDS011;6861;46.170;7.222;2023-08-30T08:33:21;2.70;;;1.25;;
13580;SDS011;6861;46.170;7.222;2023-08-30T08:35:50;1.10;;;1.00;;
13580;SDS011;6861;46.170;7.222;2023-08-30T08:38:20;1.45;;;1.13;;
13580;SDS011;6861;46.170;7.222;2023-08-30T08:40:48;1.58;;;1.00;;
13580;SDS011;6861;46.170;7.222;2023-08-30T08:43:18;2.00;;;1.00;;
13580;SDS011;6861;46.170;7.222;2023-08-30T08:45:47;1.20;;;1.00;;
13580;SDS011;6861;46.170;7.222;2023-08-30T08:48:17;1.10;;;0.85;;
13580;SDS011;6861;46.170;7.222;2023-08-30T08:50:45;1.60;;;0.75;;
13580;SDS011;6861;46.170;7.222;2023-08-30T08:53:13;1.85;;;1.08;;
13580;SDS011;6861;46.170;7.222;2023-08-30T08:55:43;2.30;;;1.00;;
13580;SDS011;6861;46.170;7.222;2023-08-30T08:58:14;2.88;;;1.00;;
13580;SDS011;6861;46.170;7.222;2023-08-30T09:00:42;2.22;;;0.95;;
13580;SDS011;6861;46.170;7.222;2023-08-30T09:03:11;1.08;;;0.88;;
13580;SDS011;6861;46.170;7.222;2023-08-30T09:05:41;1.17;;;0.93;;
13580;SDS011;6861;46.170;7.222;2023-08-30T09:08:10;1.17;;;1.00;;
13580;SDS011;6861;46.170;7.222;2023-08-30T09:10:39;3.03;;;1.38;;
13580;SDS011;6861;46.170;7.222;2023-08-30T09:13:09;1.00;;;0.90;;
13580;SDS011;6861;46.170;7.222;2023-08-30T09:15:38;0.73;;;0.70;;
13580;SDS011;6861;46.170;7.222;2023-08-30T09:18:14;1.52;;;0.80;;
13580;SDS011;6861;46.170;7.222;2023-08-30T09:20:42;1.27;;;0.77;;
13580;SDS011;6861;46.170;7.222;2023-08-30T09:23:17;1.23;;;1.13;;
13580;SDS011;6861;46.170;7.222;2023-08-30T09:25:46;1.13;;;0.90;;
13580;SDS011;6861;46.170;7.222;2023-08-30T09:28:23;0.82;;;0.82;;
13580;SDS011;6861;46.170;7.222;2023-08-30T09:30:51;0.90;;;0.82;;
13580;SDS011;6861;46.170;7.222;2023-08-30T09:33:20;1.08;;;0.85;;
13580;SDS011;6861;46.170;7.222;2023-08-30T09:35:49;1.55;;;0.90;;
13580;SDS011;6861;46.170;7.222;2023-08-30T09:38:18;1.20;;;0.80;;
13580;SDS011;6861;46.170;7.222;2023-08-30T09:40:46;1.40;;;0.90;;
13580;SDS011;6861;46.170;7.222;2023-08-30T09:43:17;0.90;;;0.77;;
13580;SDS011;6861;46.170;7.222;2023-08-30T09:45:49;1.10;;;0.93;;
13580;SDS011;6861;46.170;7.222;2023-08-30T09:48:20;1.40;;;0.77;;
13580;SDS011;6861;46.170;7.222;2023-08-30T09:50:50;1.05;;;0.80;;
13580;SDS011;6861;46.170;7.222;2023-08-30T09:53:21;1.35;;;0.73;;
13580;SDS011;6861;46.170;7.222;2023-08-30T09:55:54;1.17;;;0.88;;
13580;SDS011;6861;46.170;7.222;2023-08-30T09:58:24;1.48;;;0.85;;
13580;SDS011;6861;46.170;7.222;2023-08-30T10:00:55;1.08;;;0.90;;
13580;SDS011;6861;46.170;7.222;2023-08-30T10:03:24;1.70;;;0.90;;
13580;SDS011;6861;46.170;7.222;2023-08-30T10:06:13;1.00;;;0.80;;
13580;SDS011;6861;46.170;7.222;2023-08-30T10:08:41;1.08;;;0.70;;
13580;SDS011;6861;46.170;7.222;2023-08-30T10:11:13;0.95;;;0.75;;
13580;SDS011;6861;46.170;7.222;2023-08-30T10:13:43;0.90;;;0.80;;
13580;SDS011;6861;46.170;7.222;2023-08-30T10:16:15;2.08;;;0.80;;
13580;SDS011;6861;46.170;7.222;2023-08-30T10:18:47;1.00;;;0.85;;
13580;SDS011;6861;46.170;7.222;2023-08-30T10:21:31;1.95;;;0.80;;
13580;SDS011;6861;46.170;7.222;2023-08-30T10:24:00;1.02;;;0.82;;
13580;SDS011;6861;46.170;7.222;2023-08-30T10:26:39;1.88;;;0.90;;
13580;SDS011;6861;46.170;7.222;2023-08-30T10:29:10;2.22;;;0.95;;
13580;SDS011;6861;46.170;7.222;2023-08-30T10:31:41;1.30;;;0.90;;
13580;SDS011;6861;46.170;7.222;2023-08-30T10:34:13;1.42;;;0.90;;
13580;SDS011;6861;46.170;7.222;2023-08-30T10:36:42;1.00;;;0.80;;
13580;SDS011;6861;46.170;7.222;2023-08-30T10:39:12;1.83;;;0.90;;
13580;SDS011;6861;46.170;7.222;2023-08-30T10:41:53;1.88;;;0.80;;
13580;SDS011;6861;46.170;7.222;2023-08-30T10:44:25;4.13;;;0.80;;
13580;SDS011;6861;46.170;7.222;2023-08-30T10:46:54;1.38;;;0.90;;
13580;SDS011;6861;46.170;7.222;2023-08-30T10:49:23;1.00;;;0.77;;
13580;SDS011;6861;46.170;7.222;2023-08-30T10:51:55;0.75;;;0.63;;
13580;SDS011;6861;46.170;7.222;2023-08-30T10:54:25;2.92;;;0.90;;
13580;SDS011;6861;46.170;7.222;2023-08-30T10:56:56;1.67;;;0.88;;
13580;SDS011;6861;46.170;7.222;2023-08-30T10:59:27;1.35;;;0.70;;
13580;SDS011;6861;46.170;7.222;2023-08-30T11:02:00;1.73;;;0.75;;
13580;SDS011;6861;46.170;7.222;2023-08-30T11:04:30;1.60;;;0.80;;
13580;SDS011;6861;46.170;7.222;2023-08-30T11:06:58;0.93;;;0.60;;
13580;SDS011;6861;46.170;7.222;2023-08-30T11:09:26;0.93;;;0.70;;
13580;SDS011;6861;46.170;7.222;2023-08-30T11:11:54;1.48;;;0.68;;
13580;SDS011;6861;46.170;7.222;2023-08-30T11:14:23;2.03;;;0.70;;
13580;SDS011;6861;46.170;7.222;2023-08-30T11:16:51;1.48;;;0.70;;
13580;SDS011;6861;46.170;7.222;2023-08-30T11:19:20;0.80;;;0.80;;
13580;SDS011;6861;46.170;7.222;2023-08-30T11:21:48;0.70;;;0.70;;
13580;SDS011;6861;46.170;7.222;2023-08-30T11:24:17;1.00;;;0.70;;
13580;SDS011;6861;46.170;7.222;2023-08-30T11:26:45;0.73;;;0.70;;
13580;SDS011;6861;46.170;7.222;2023-08-30T11:29:13;1.40;;;0.80;;
13580;SDS011;6861;46.170;7.222;2023-08-30T11:31:42;0.70;;;0.60;;
13580;SDS011;6861;46.170;7.222;2023-08-30T11:34:13;1.10;;;0.60;;
13580;SDS011;6861;46.170;7.222;2023-08-30T11:36:42;0.88;;;0.65;;
13580;SDS011;6861;46.170;7.222;2023-08-30T11:39:13;1.58;;;0.60;;
13580;SDS011;6861;46.170;7.222;2023-08-30T11:41:42;0.80;;;0.52;;
13580;SDS011;6861;46.170;7.222;2023-08-30T11:44:11;1.35;;;0.60;;
13580;SDS011;6861;46.170;7.222;2023-08-30T11:46:39;1.38;;;0.60;;
13580;SDS011;6861;46.170;7.222;2023-08-30T11:49:07;0.88;;;0.50;;
13580;SDS011;6861;46.170;7.222;2023-08-30T11:51:36;0.95;;;0.65;;
13580;SDS011;6861;46.170;7.222;2023-08-30T11:54:06;0.60;;;0.50;;
13580;SDS011;6861;46.170;7.222;2023-08-30T11:56:34;1.20;;;0.80;;
13580;SDS011;6861;46.170;7.222;2023-08-30T11:59:03;1.02;;;0.60;;
13580;SDS011;6861;46.170;7.222;2023-08-30T12:01:32;2.00;;;0.60;;
13580;SDS011;6861;46.170;7.222;2023-08-30T12:04:08;0.75;;;0.65;;
13580;SDS011;6861;46.170;7.222;2023-08-30T12:06:37;1.35;;;0.70;;
13580;SDS011;6861;46.170;7.222;2023-08-30T12:09:11;3.08;;;0.80;;
13580;SDS011;6861;46.170;7.222;2023-08-30T12:11:39;0.80;;;0.70;;
13580;SDS011;6861;46.170;7.222;2023-08-30T12:14:07;1.40;;;0.88;;
13580;SDS011;6861;46.170;7.222;2023-08-30T12:16:35;0.98;;;0.70;;
13580;SDS011;6861;46.170;7.222;2023-08-30T12:19:07;0.70;;;0.60;;
13580;SDS011;6861;46.170;7.222;2023-08-30T12:21:40;0.90;;;0.60;;
13580;SDS011;6861;46.170;7.222;2023-08-30T12:24:10;1.00;;;0.60;;
13580;SDS011;6861;46.170;7.222;2023-08-30T12:26:38;1.20;;;0.70;;
13580;SDS011;6861;46.170;7.222;2023-08-30T12:29:07;0.52;;;0.45;;
13580;SDS011;6861;46.170;7.222;2023-08-30T12:31:35;0.90;;;0.80;;
13580;SDS011;6861;46.170;7.222;2023-08-30T12:34:04;1.70;;;0.60;;
13580;SDS011;6861;46.170;7.222;2023-08-30T12:36:32;0.68;;;0.60;;
13580;SDS011;6861;46.170;7.222;2023-08-30T12:39:00;1.33;;;0.60;;
13580;SDS011;6861;46.170;7.222;2023-08-30T12:41:32;2.05;;;0.70;;
13580;SDS011;6861;46.170;7.222;2023-08-30T12:44:00;0.88;;;0.60;;
13580;SDS011;6861;46.170;7.222;2023-08-30T12:46:30;1.17;;;0.57;;
13580;SDS011;6861;46.170;7.222;2023-08-30T12:48:58;1.20;;;0.52;;
13580;SDS011;6861;46.170;7.222;2023-08-30T12:51:26;0.95;;;0.63;;
13580;SDS011;6861;46.170;7.222;2023-08-30T12:53:55;1.20;;;0.77;;
13580;SDS011;6861;46.170;7.222;2023-08-30T12:56:23;1.52;;;0.70;;
13580;SDS011;6861;46.170;7.222;2023-08-30T12:58:54;0.77;;;0.70;;
13580;SDS011;6861;46.170;7.222;2023-08-30T13:01:22;1.33;;;0.80;;
13580;SDS011;6861;46.170;7.222;2023-08-30T13:03:51;0.90;;;0.70;;
13580;SDS011;6861;46.170;7.222;2023-08-30T13:06:19;2.25;;;1.10;;
13580;SDS011;6861;46.170;7.222;2023-08-30T13:08:47;0.70;;;0.60;;
13580;SDS011;6861;46.170;7.222;2023-08-30T13:11:15;1.65;;;0.75;;
13580;SDS011;6861;46.170;7.222;2023-08-30T13:13:43;2.92;;;0.77;;
13580;SDS011;6861;46.170;7.222;2023-08-30T13:16:13;0.80;;;0.70;;
13580;SDS011;6861;46.170;7.222;2023-08-30T13:18:41;0.95;;;0.60;;
13580;SDS011;6861;46.170;7.222;2023-08-30T13:21:09;1.08;;;0.70;;
13580;SDS011;6861;46.170;7.222;2023-08-30T13:23:37;1.00;;;0.70;;
13580;SDS011;6861;46.170;7.222;2023-08-30T13:26:06;3.75;;;0.70;;
13580;SDS011;6861;46.170;7.222;2023-08-30T13:28:34;2.40;;;0.70;;
13580;SDS011;6861;46.170;7.222;2023-08-30T13:31:02;0.63;;;0.63;;
13580;SDS011;6861;46.170;7.222;2023-08-30T13:33:32;0.85;;;0.60;;
13580;SDS011;6861;46.170;7.222;2023-08-30T13:36:00;1.02;;;0.70;;
13580;SDS011;6861;46.170;7.222;2023-08-30T13:38:29;2.17;;;0.65;;
13580;SDS011;6861;46.170;7.222;2023-08-30T13:40:58;0.73;;;0.70;;
13580;SDS011;6861;46.170;7.222;2023-08-30T13:43:27;1.23;;;0.70;;
13580;SDS011;6861;46.170;7.222;2023-08-30T13:45:58;1.35;;;0.60;;
13580;SDS011;6861;46.170;7.222;2023-08-30T13:48:26;1.95;;;0.70;;
13580;SDS011;6861;46.170;7.222;2023-08-30T13:50:56;1.00;;;0.65;;
13580;SDS011;6861;46.170;7.222;2023-08-30T13:53:24;0.73;;;0.60;;
13580;SDS011;6861;46.170;7.222;2023-08-30T13:55:52;0.68;;;0.60;;
13580;SDS011;6861;46.170;7.222;2023-08-30T13:58:20;0.60;;;0.60;;
13580;SDS011;6861;46.170;7.222;2023-08-30T14:00:48;0.90;;;0.70;;
13580;SDS011;6861;46.170;7.222;2023-08-30T14:03:16;1.83;;;0.70;;
13580;SDS011;6861;46.170;7.222;2023-08-30T14:05:44;2.63;;;1.00;;
13580;SDS011;6861;46.170;7.222;2023-08-30T14:08:14;2.17;;;0.90;;
13580;SDS011;6861;46.170;7.222;2023-08-30T14:10:42;3.00;;;0.85;;
13580;SDS011;6861;46.170;7.222;2023-08-30T14:13:10;1.15;;;0.70;;
13580;SDS011;6861;46.170;7.222;2023-08-30T14:15:40;1.13;;;0.70;;
13580;SDS011;6861;46.170;7.222;2023-08-30T14:18:09;0.63;;;0.60;;
13580;SDS011;6861;46.170;7.222;2023-08-30T14:20:38;0.85;;;0.68;;
13580;SDS011;6861;46.170;7.222;2023-08-30T14:23:07;0.93;;;0.80;;
13580;SDS011;6861;46.170;7.222;2023-08-30T14:25:36;0.70;;;0.70;;
13580;SDS011;6861;46.170;7.222;2023-08-30T14:28:05;0.73;;;0.60;;
13580;SDS011;6861;46.170;7.222;2023-08-30T14:30:33;0.88;;;0.70;;
13580;SDS011;6861;46.170;7.222;2023-08-30T14:33:01;1.70;;;0.60;;
13580;SDS011;6861;46.170;7.222;2023-08-30T14:35:30;1.73;;;0.70;;
13580;SDS011;6861;46.170;7.222;2023-08-30T14:37:58;0.90;;;0.60;;
13580;SDS011;6861;46.170;7.222;2023-08-30T14:40:27;0.60;;;0.55;;
13580;SDS011;6861;46.170;7.222;2023-08-30T14:42:56;1.48;;;0.60;;
13580;SDS011;6861;46.170;7.222;2023-08-30T14:45:24;1.70;;;0.60;;
13580;SDS011;6861;46.170;7.222;2023-08-30T14:47:53;0.93;;;0.70;;
13580;SDS011;6861;46.170;7.222;2023-08-30T14:50:21;0.85;;;0.70;;
13580;SDS011;6861;46.170;7.222;2023-08-30T14:52:49;2.22;;;0.80;;
13580;SDS011;6861;46.170;7.222;2023-08-30T14:55:21;2.05;;;0.77;;
13580;SDS011;6861;46.170;7.222;2023-08-30T14:57:51;2.92;;;0.80;;
13580;SDS011;6861;46.170;7.222;2023-08-30T15:00:20;1.52;;;0.80;;
13580;SDS011;6861;46.170;7.222;2023-08-30T15:02:49;2.58;;;0.70;;
13580;SDS011;6861;46.170;7.222;2023-08-30T15:05:17;2.45;;;0.82;;
13580;SDS011;6861;46.170;7.222;2023-08-30T15:07:45;2.03;;;0.90;;
13580;SDS011;6861;46.170;7.222;2023-08-30T15:10:13;0.70;;;0.60;;
13580;SDS011;6861;46.170;7.222;2023-08-30T15:12:42;2.50;;;0.80;;